Pojoaque, New Mexico
Current Conditions -  °F | °C
As of 6:53 PM on Friday 28 Nov 2014 (Local Time) from KSAF Reporting Station
Clear Clear  
Wind Chill: 38°   Ceiling: Unl
Heat Index: 42°   Visibility: 10mi
Dew Point: 14°   Wind: 6mph
Humidity: 32%   Direction: 330°NNW
Pressure: 30.11"   Gusts: NA
Location:  35.7017°N, 105.921°W
Report Text: KSAF 290153Z 33005KT 10SM CLR 06/M10 A3011 RMK AO2 SLP182 T00561100
Loading
Personal Weather Stations






























Interactive Weather Map New forecast layout! Learn more

10-Day Weather Forecast

Advertisements
Track Severe Weather on mobile